• Join FlightAware (Why Join?)
  • Login
  • US Flag 
09:47PM EDT


 

Airport Tracker/Info


-or-


 

Live Flight TrackerFlight Track Log ✈ SKW6492 ✈ 09-May-2013 ✈ KAUS - KDEN

Flight Track Log - Related Links

Times and Time Zones

All times are in EDT time to prevent confusion due to time zone crossing. See the SKW6492 flight status page for this flight to view local times or setup timezone preferences in your user account.

Time Position Orientation Groundspeed Altitude Reporting Facility
EDT Latitude Longitude Course Direction KTS MPH feet Rate Location/Type
04:30PM 30.1564 -97.6800 291° West 163 188 2,200  Level Houston Center
04:31PM 30.1414 -97.7339 252° West 219 252 4,100 2,220 Climbing Houston Center
04:32PM 30.1839 -97.8133 302° West 244 281 6,900 2,640 Climbing Houston Center
04:33PM 30.4526 -97.7697 293° West  Level FlightAware Approximate
04:33PM 30.2297 -97.8861 306° West 260 299 9,600  Level Houston Center
04:34PM 30.4980 -97.8946 293° West  Level FlightAware Approximate
04:34PM 30.2756 -97.9594 306° West 279 321 11,200  Level Houston Center
04:35PM 30.5404 -98.0210 291° West  Level FlightAware Approximate
04:35PM 30.3272 -98.0397 307° West 310 357 13,400  Level Houston Center
04:36PM 30.5826 -98.1475 291° West  Level FlightAware Approximate
04:36PM 30.3806 -98.1242 306° West 319 367 15,600  Level Houston Center
04:37PM 30.4361 -98.2094 307° West 325 374 18,100 1,980 Climbing Houston Center
04:38PM 30.4894 -98.2947 306° West 324 373 19,700 1,500 Climbing Houston Center
04:39PM 30.5450 -98.3856 305° West 336 387 21,300 1,740 Climbing Houston Center
04:41PM 30.6128 -98.4931 306° West 347 399 23,300 1,680 Climbing Houston Center
04:42PM 30.6686 -98.5881 304° West 352 405 24,900 1,440 Climbing Houston Center
04:43PM 30.6911 -98.6989 283° West 350 403 26,300 1,080 Climbing Houston Center
04:44PM 30.7156 -98.8136 284° West 361 415 27,200 960 Climbing Houston Center
04:45PM 30.7408 -98.9322 284° West 374 430 28,300 900 Climbing Houston Center
04:46PM 30.7664 -99.0528 284° West 381 438 29,100 960 Climbing Houston Center
04:47PM 30.7978 -99.1922 285° West 387 445 30,400 1,440 Climbing Houston Center
04:48PM 30.8231 -99.3103 284° West 380 437 32,100 1,320 Climbing Houston Center
04:49PM 30.8481 -99.4236 284° West 368 423 33,200 1,260 Climbing Houston Center
04:50PM 30.8689 -99.5303 283° West 344 396 34,800 1,080 Climbing Houston Center
04:51PM 30.8911 -99.6375 284° West 353 406 35,500 1,020 Climbing Houston Center
04:52PM 30.9208 -99.7672 285° West 347 399 37,000 960 Climbing Houston Center
04:53PM 30.9406 -99.8678 283° West 330 380 37,500 480 Climbing Houston Center
04:54PM 30.9614 -99.9706 283° West 327 376 38,000 240 Climbing Houston Center
04:55PM 30.9828 -100.0733 284° West 327 376 38,000  Level Houston Center
04:56PM 31.0050 -100.1808 284° West 337 388 38,000  Level Houston Center
04:57PM 31.0264 -100.2906 283° West 345 397 38,000  Level Houston Center
04:59PM 31.1564 -100.4997 306° West 388 447 38,000 -60 Level Houston Center
05:00PM 31.2703 -100.5361 345° North 422 486 37,900  Descending Houston Center
05:01PM 31.4178 -100.5731 348° North 405 466 38,000  Climbing Fort Worth Center
05:02PM 31.5361 -100.5989 349° North 420 483 38,000  Level Fort Worth Center
05:03PM 31.6544 -100.6300 347° North 431 496 38,000  Level Fort Worth Center
05:04PM 31.7725 -100.6633 347° North 431 496 38,000 -60 Level Fort Worth Center
05:05PM 31.8697 -100.6936 345° North 431 496 37,900  Descending Fort Worth Center
05:06PM 32.0083 -100.7453 342° North 431 496 38,000  Climbing Fort Worth Center
05:07PM 32.1283 -100.7864 344° North 436 502 38,000  Level Fort Worth Center
05:08PM 32.2461 -100.8275 344° North 436 502 38,000  Level Fort Worth Center
05:09PM 32.3683 -100.8692 344° North 436 502 38,000  Level Fort Worth Center
05:10PM 32.4903 -100.9108 344° North 447 514 38,000  Level Fort Worth Center
05:11PM 32.6100 -100.9547 343° North 452 520 38,000  Level Fort Worth Center
05:12PM 32.7319 -100.9967 344° North 457 526 38,000  Level Fort Worth Center
05:13PM 32.8519 -101.0386 344° North 457 526 38,000  Level Fort Worth Center
05:14PM 32.9717 -101.0781 345° North 452 520 38,000  Level Fort Worth Center
05:15PM 33.0792 -101.1147 344° North 452 520 38,000  Level Fort Worth Center
05:16PM 33.2114 -101.1600 344° North 452 520 38,000  Level Fort Worth Center
05:17PM 33.3147 -101.1992 342° North 440 506 38,000  Level Fort Worth Center
05:18PM 33.4447 -101.2469 343° North 440 506 38,000  Level Fort Worth Center
05:19PM 33.5478 -101.2839 343° North 435 501 38,000  Level Fort Worth Center
05:20PM 33.6800 -101.3297 344° North 443 510 38,000  Level Fort Worth Center
05:21PM 33.7872 -101.3694 343° North 443 510 38,000  Level Fort Worth Center
05:22PM 33.9214 -101.4183 343° North 443 510 38,000  Level Fort Worth Center
05:23PM 34.0244 -101.4556 343° North 436 502 38,000  Level Fort Worth Center
05:24PM 34.1564 -101.5069 342° North 436 502 38,000  Level Fort Worth Center
05:25PM 34.2636 -101.5422 345° North 443 510 38,000  Level Fort Worth Center
05:27PM 34.4667 -101.6133 344° North 450 518 38,000  Level Albuquerque Center
05:28PM 34.5872 -101.6586 343° North 451 519 38,000  Level Albuquerque Center
05:29PM 34.7069 -101.7033 343° North 450 518 38,000  Level Albuquerque Center
05:30PM 34.8258 -101.7481 343° North 447 514 38,000  Level Albuquerque Center
05:31PM 34.9456 -101.7925 343° North 447 514 38,000  Level Albuquerque Center
05:32PM 35.0864 -101.8428 344° North 455 524 38,000  Level Albuquerque Center
05:33PM 35.2078 -101.8886 343° North 455 524 38,000  Level Albuquerque Center
05:34PM 35.3297 -101.9342 343° North 454 522 38,000  Level Albuquerque Center
05:35PM 35.4575 -101.9844 342° North 447 514 38,000  Level Albuquerque Center
05:36PM 35.5778 -102.0286 343° North 448 516 38,000  Level Albuquerque Center
05:37PM 35.6981 -102.0742 343° North 449 517 38,000  Level Albuquerque Center
05:38PM 35.8192 -102.1194 343° North 453 521 38,000  Level Albuquerque Center
05:39PM 35.9394 -102.1656 343° North 453 521 38,000  Level Albuquerque Center
05:40PM 36.0594 -102.2119 343° North 451 519 38,000  Level Albuquerque Center
05:41PM 36.2031 -102.2672 343° North 451 519 38,000  Level Albuquerque Center
05:42PM 36.3233 -102.3139 343° North 452 520 38,000  Level Albuquerque Center
05:43PM 36.4439 -102.3569 344° North 451 519 38,000  Level Albuquerque Center
05:45PM 36.5642 -102.4056 342° North 453 521 38,000  Level Albuquerque Center
05:46PM 36.6839 -102.4517 343° North 453 521 38,000  Level Albuquerque Center
05:47PM 36.8031 -102.4975 343° North 449 517 38,000 -300 Level Albuquerque Center
05:48PM 36.9436 -102.5533 342° North 457 526 37,400 -780 Descending Albuquerque Center
05:49PM 37.0586 -102.5978 343° North 454 522 36,400 -720 Descending Albuquerque Center
05:50PM 37.1906 -102.6503 342° North 448 516 36,000 -240 Descending Albuquerque Center
05:51PM 37.3022 -102.6942 343° North 442 509 36,000  Level Albuquerque Center
05:51PM 37.3775 -102.7242 342° North 443 510 36,000  Level Denver Center
05:52PM 37.4925 -102.7686 343° North 449 517 36,000  Level Denver Center
05:53PM 37.6306 -102.8153 345° North 457 526 36,000  Level Denver Center
05:54PM 37.7503 -102.8519 346° North 461 531 36,000  Level Denver Center
05:55PM 37.8947 -102.8731 353° North 469 540 36,000  Level Denver Center
05:57PM 38.0169 -102.8928 353° North 465 535 36,000  Level Denver Center
05:58PM 38.1672 -102.9158 353° North 456 525 36,000 -180 Level Denver Center
05:59PM 38.3061 -102.9369 353° North 449 517 35,700 -540 Descending Denver Center
06:00PM 38.4258 -102.9550 353° North 451 519 35,000 -960 Descending Denver Center
06:01PM 38.5656 -102.9758 353° North 450 518 33,800 -1,200 Descending Denver Center
06:02PM 38.6903 -102.9997 351° North 443 510 32,500 -1,320 Descending Denver Center
06:03PM 38.7936 -103.0697 332° Northwest 440 506 31,100 -1,680 Descending Denver Center
06:04PM 38.8828 -103.2039 311° West 441 507 29,100 -1,980 Descending Denver Center
06:05PM 38.9603 -103.3150 312° West 439 505 27,100 -2,280 Descending Denver Center
06:06PM 39.0492 -103.4397 313° West 424 488 24,400 -2,460 Descending Denver Center
06:07PM 39.1225 -103.5392 314° West 404 465 22,100 -1,800 Descending Denver Center
06:08PM 39.2111 -103.6289 322° Northwest 363 418 20,700 -1,140 Descending Denver Center
06:09PM 39.2764 -103.6978 321° Northwest 324 373 19,800 -1,020 Descending Denver Center
06:10PM 39.3497 -103.7797 319° Northwest 314 361 18,700 -1,020 Descending Denver Center
06:11PM 39.4108 -103.8800 308° West 341 392 17,800 -960 Descending Denver Center
06:12PM 39.4594 -103.9736 304° West 315 362 16,800 -1,260 Descending Denver Center
06:13PM 39.5114 -104.0739 304° West 313 360 15,200 -1,380 Descending Denver Center
06:14PM 39.4731 -104.1806 245° Southwest 333 383 14,000 -900 Descending Denver Center
06:15PM 39.4358 -104.2758 243° Southwest 309 356 13,400 -540 Descending Denver Center
06:16PM 39.4450 -104.3786 277° West 271 312 13,000 -660 Descending Denver Center
06:17PM 39.4639 -104.4719 285° West 270 311 12,100 -1,020 Descending Denver Center
06:18PM 39.4889 -104.5711 288° West 270 311 11,000 -1,020 Descending Denver Center
06:19PM 39.5244 -104.6369 305° West 242 278 10,000 -540 Descending Denver Center
06:20PM 39.5822 -104.6644 340° North 216 249 10,000 -420 Level Denver Center
06:21PM 39.6397 -104.6625 North 209 241 9,200 -1,020 Descending Denver Center
06:22PM 39.6950 -104.6622 360° North 198 228 8,000 -1,200 Descending Denver Center